sensor_id;sensor_type;location;lat;lon;timestamp;P1;durP1;ratioP1;P2;durP2;ratioP2
25567;SDS011;13455;51.480;7.594;2023-05-08T00:01:25;23.08;;;20.05;;
25567;SDS011;13455;51.480;7.594;2023-05-08T00:03:53;23.85;;;20.00;;
25567;SDS011;13455;51.480;7.594;2023-05-08T00:06:18;23.13;;;20.30;;
25567;SDS011;13455;51.480;7.594;2023-05-08T00:08:44;25.10;;;19.63;;
25567;SDS011;13455;51.480;7.594;2023-05-08T00:11:10;22.60;;;20.10;;
25567;SDS011;13455;51.480;7.594;2023-05-08T00:13:35;24.83;;;20.48;;
25567;SDS011;13455;51.480;7.594;2023-05-08T00:16:01;26.27;;;20.63;;
25567;SDS011;13455;51.480;7.594;2023-05-08T00:18:26;25.23;;;20.50;;
25567;SDS011;13455;51.480;7.594;2023-05-08T00:20:52;24.33;;;20.40;;
25567;SDS011;13455;51.480;7.594;2023-05-08T00:23:18;25.20;;;20.27;;
25567;SDS011;13455;51.480;7.594;2023-05-08T00:25:46;23.13;;;20.00;;
25567;SDS011;13455;51.480;7.594;2023-05-08T00:28:11;23.08;;;19.95;;
25567;SDS011;13455;51.480;7.594;2023-05-08T00:30:37;23.25;;;20.20;;
25567;SDS011;13455;51.480;7.594;2023-05-08T00:33:02;25.63;;;20.80;;
25567;SDS011;13455;51.480;7.594;2023-05-08T00:35:28;25.63;;;20.73;;
25567;SDS011;13455;51.480;7.594;2023-05-08T00:37:54;22.67;;;19.80;;
25567;SDS011;13455;51.480;7.594;2023-05-08T00:40:20;22.93;;;20.43;;
25567;SDS011;13455;51.480;7.594;2023-05-08T00:42:45;24.70;;;20.30;;
25567;SDS011;13455;51.480;7.594;2023-05-08T00:45:11;23.33;;;20.73;;
25567;SDS011;13455;51.480;7.594;2023-05-08T00:47:37;24.80;;;20.73;;
25567;SDS011;13455;51.480;7.594;2023-05-08T00:50:03;24.38;;;20.83;;
25567;SDS011;13455;51.480;7.594;2023-05-08T00:52:29;26.42;;;21.27;;
25567;SDS011;13455;51.480;7.594;2023-05-08T00:54:57;24.50;;;20.77;;
25567;SDS011;13455;51.480;7.594;2023-05-08T00:57:23;26.40;;;21.55;;
25567;SDS011;13455;51.480;7.594;2023-05-08T00:59:49;24.80;;;21.02;;
25567;SDS011;13455;51.480;7.594;2023-05-08T01:02:16;23.58;;;20.52;;
25567;SDS011;13455;51.480;7.594;2023-05-08T01:04:42;23.38;;;20.33;;
25567;SDS011;13455;51.480;7.594;2023-05-08T01:07:10;24.35;;;21.15;;
25567;SDS011;13455;51.480;7.594;2023-05-08T01:09:36;24.67;;;21.38;;
25567;SDS011;13455;51.480;7.594;2023-05-08T01:19:46;23.23;;;20.57;;
25567;SDS011;13455;51.480;7.594;2023-05-08T01:22:27;23.50;;;20.48;;
25567;SDS011;13455;51.480;7.594;2023-05-08T01:30:51;25.13;;;20.73;;
25567;SDS011;13455;51.480;7.594;2023-05-08T01:39:07;23.48;;;20.05;;
25567;SDS011;13455;51.480;7.594;2023-05-08T01:41:30;24.65;;;19.30;;
25567;SDS011;13455;51.480;7.594;2023-05-08T01:44:12;22.40;;;18.05;;
25567;SDS011;13455;51.480;7.594;2023-05-08T01:46:39;22.03;;;17.53;;
25567;SDS011;13455;51.480;7.594;2023-05-08T01:49:10;22.00;;;16.35;;
25567;SDS011;13455;51.480;7.594;2023-05-08T01:51:40;18.63;;;16.27;;
25567;SDS011;13455;51.480;7.594;2023-05-08T01:54:11;19.90;;;16.13;;
25567;SDS011;13455;51.480;7.594;2023-05-08T01:56:41;18.20;;;15.15;;
25567;SDS011;13455;51.480;7.594;2023-05-08T01:59:09;19.35;;;15.07;;
25567;SDS011;13455;51.480;7.594;2023-05-08T02:01:38;18.63;;;15.15;;
25567;SDS011;13455;51.480;7.594;2023-05-08T02:04:05;20.30;;;14.93;;
25567;SDS011;13455;51.480;7.594;2023-05-08T02:06:32;18.27;;;14.70;;
25567;SDS011;13455;51.480;7.594;2023-05-08T02:08:59;17.77;;;15.02;;
25567;SDS011;13455;51.480;7.594;2023-05-08T02:11:26;18.30;;;15.33;;
25567;SDS011;13455;51.480;7.594;2023-05-08T02:13:55;20.02;;;14.88;;
25567;SDS011;13455;51.480;7.594;2023-05-08T02:16:23;18.07;;;15.13;;
25567;SDS011;13455;51.480;7.594;2023-05-08T02:18:51;18.00;;;15.30;;
25567;SDS011;13455;51.480;7.594;2023-05-08T02:21:17;16.63;;;14.57;;
25567;SDS011;13455;51.480;7.594;2023-05-08T02:23:44;17.27;;;14.73;;
25567;SDS011;13455;51.480;7.594;2023-05-08T02:26:14;18.93;;;15.10;;
25567;SDS011;13455;51.480;7.594;2023-05-08T02:28:40;17.90;;;15.00;;
25567;SDS011;13455;51.480;7.594;2023-05-08T02:31:07;18.50;;;15.38;;
25567;SDS011;13455;51.480;7.594;2023-05-08T02:33:35;17.23;;;15.03;;
25567;SDS011;13455;51.480;7.594;2023-05-08T02:36:03;17.37;;;15.13;;
25567;SDS011;13455;51.480;7.594;2023-05-08T02:38:30;19.92;;;15.50;;
25567;SDS011;13455;51.480;7.594;2023-05-08T02:40:59;18.88;;;14.98;;
25567;SDS011;13455;51.480;7.594;2023-05-08T02:43:29;19.80;;;16.25;;
25567;SDS011;13455;51.480;7.594;2023-05-08T02:46:01;18.88;;;15.25;;
25567;SDS011;13455;51.480;7.594;2023-05-08T02:48:32;17.58;;;15.50;;
25567;SDS011;13455;51.480;7.594;2023-05-08T02:53:43;19.27;;;15.77;;
25567;SDS011;13455;51.480;7.594;2023-05-08T02:56:46;20.80;;;15.50;;
25567;SDS011;13455;51.480;7.594;2023-05-08T02:59:21;19.17;;;15.15;;
25567;SDS011;13455;51.480;7.594;2023-05-08T03:02:02;18.70;;;15.50;;
25567;SDS011;13455;51.480;7.594;2023-05-08T03:04:33;18.67;;;15.40;;
25567;SDS011;13455;51.480;7.594;2023-05-08T03:07:00;18.52;;;15.38;;
25567;SDS011;13455;51.480;7.594;2023-05-08T03:09:30;17.98;;;15.20;;
25567;SDS011;13455;51.480;7.594;2023-05-08T03:12:08;19.45;;;15.40;;
25567;SDS011;13455;51.480;7.594;2023-05-08T03:14:40;19.08;;;15.27;;
25567;SDS011;13455;51.480;7.594;2023-05-08T03:17:10;19.92;;;15.93;;
25567;SDS011;13455;51.480;7.594;2023-05-08T03:19:39;19.93;;;16.13;;
25567;SDS011;13455;51.480;7.594;2023-05-08T03:22:09;20.52;;;15.93;;
25567;SDS011;13455;51.480;7.594;2023-05-08T03:24:35;19.37;;;16.37;;
25567;SDS011;13455;51.480;7.594;2023-05-08T03:27:04;21.00;;;16.70;;
25567;SDS011;13455;51.480;7.594;2023-05-08T03:29:32;19.80;;;16.10;;
25567;SDS011;13455;51.480;7.594;2023-05-08T03:31:59;21.20;;;16.50;;
25567;SDS011;13455;51.480;7.594;2023-05-08T03:34:26;19.40;;;16.05;;
25567;SDS011;13455;51.480;7.594;2023-05-08T03:36:53;18.90;;;15.77;;
25567;SDS011;13455;51.480;7.594;2023-05-08T03:39:20;20.33;;;15.80;;
25567;SDS011;13455;51.480;7.594;2023-05-08T03:41:46;19.93;;;15.97;;
25567;SDS011;13455;51.480;7.594;2023-05-08T03:44:13;18.70;;;15.18;;
25567;SDS011;13455;51.480;7.594;2023-05-08T03:46:40;21.88;;;15.48;;
25567;SDS011;13455;51.480;7.594;2023-05-08T03:49:06;19.00;;;15.32;;
25567;SDS011;13455;51.480;7.594;2023-05-08T03:51:33;19.92;;;15.85;;
25567;SDS011;13455;51.480;7.594;2023-05-08T03:54:02;19.40;;;15.77;;
25567;SDS011;13455;51.480;7.594;2023-05-08T03:56:28;19.63;;;15.87;;
25567;SDS011;13455;51.480;7.594;2023-05-08T04:01:48;19.48;;;16.40;;
25567;SDS011;13455;51.480;7.594;2023-05-08T04:04:22;21.45;;;16.95;;
25567;SDS011;13455;51.480;7.594;2023-05-08T04:07:02;19.73;;;16.17;;
25567;SDS011;13455;51.480;7.594;2023-05-08T04:12:24;19.98;;;16.27;;
25567;SDS011;13455;51.480;7.594;2023-05-08T04:15:07;18.50;;;15.82;;
25567;SDS011;13455;51.480;7.594;2023-05-08T04:17:39;20.77;;;15.65;;
25567;SDS011;13455;51.480;7.594;2023-05-08T04:20:10;19.63;;;15.32;;
25567;SDS011;13455;51.480;7.594;2023-05-08T04:22:39;17.98;;;15.10;;
25567;SDS011;13455;51.480;7.594;2023-05-08T04:25:07;18.23;;;14.90;;
25567;SDS011;13455;51.480;7.594;2023-05-08T04:27:34;17.02;;;14.90;;
25567;SDS011;13455;51.480;7.594;2023-05-08T04:30:01;16.85;;;14.40;;
25567;SDS011;13455;51.480;7.594;2023-05-08T04:32:27;18.67;;;14.45;;
25567;SDS011;13455;51.480;7.594;2023-05-08T04:34:54;17.33;;;14.53;;
25567;SDS011;13455;51.480;7.594;2023-05-08T04:37:24;17.77;;;14.52;;
25567;SDS011;13455;51.480;7.594;2023-05-08T04:39:51;18.13;;;14.83;;
25567;SDS011;13455;51.480;7.594;2023-05-08T04:42:16;18.80;;;14.35;;
25567;SDS011;13455;51.480;7.594;2023-05-08T04:44:42;17.60;;;13.63;;
25567;SDS011;13455;51.480;7.594;2023-05-08T04:47:08;19.23;;;14.37;;
25567;SDS011;13455;51.480;7.594;2023-05-08T04:49:33;18.47;;;14.40;;
25567;SDS011;13455;51.480;7.594;2023-05-08T04:51:59;18.03;;;14.07;;
25567;SDS011;13455;51.480;7.594;2023-05-08T04:54:25;16.77;;;13.53;;
25567;SDS011;13455;51.480;7.594;2023-05-08T04:56:51;15.10;;;13.13;;
25567;SDS011;13455;51.480;7.594;2023-05-08T04:59:17;17.93;;;13.70;;
25567;SDS011;13455;51.480;7.594;2023-05-08T05:01:44;14.02;;;12.50;;
25567;SDS011;13455;51.480;7.594;2023-05-08T05:04:11;13.93;;;12.17;;
25567;SDS011;13455;51.480;7.594;2023-05-08T05:06:36;14.50;;;12.13;;
25567;SDS011;13455;51.480;7.594;2023-05-08T05:09:02;15.13;;;12.38;;
25567;SDS011;13455;51.480;7.594;2023-05-08T05:11:28;13.95;;;11.93;;
25567;SDS011;13455;51.480;7.594;2023-05-08T05:13:54;15.90;;;11.80;;
25567;SDS011;13455;51.480;7.594;2023-05-08T05:16:20;12.60;;;11.00;;
25567;SDS011;13455;51.480;7.594;2023-05-08T05:18:45;12.50;;;10.80;;
25567;SDS011;13455;51.480;7.594;2023-05-08T05:21:11;12.93;;;11.25;;
25567;SDS011;13455;51.480;7.594;2023-05-08T05:23:37;12.93;;;10.50;;
25567;SDS011;13455;51.480;7.594;2023-05-08T05:26:03;12.68;;;10.77;;
25567;SDS011;13455;51.480;7.594;2023-05-08T05:28:28;13.70;;;10.88;;
25567;SDS011;13455;51.480;7.594;2023-05-08T05:30:54;13.27;;;10.70;;
25567;SDS011;13455;51.480;7.594;2023-05-08T05:33:20;13.60;;;10.80;;
25567;SDS011;13455;51.480;7.594;2023-05-08T05:35:46;12.45;;;10.43;;
25567;SDS011;13455;51.480;7.594;2023-05-08T05:38:11;11.63;;;10.00;;
25567;SDS011;13455;51.480;7.594;2023-05-08T05:40:37;13.03;;;10.30;;
25567;SDS011;13455;51.480;7.594;2023-05-08T05:43:02;11.27;;;9.80;;
25567;SDS011;13455;51.480;7.594;2023-05-08T05:45:28;12.80;;;9.98;;
25567;SDS011;13455;51.480;7.594;2023-05-08T05:47:54;11.00;;;9.80;;
25567;SDS011;13455;51.480;7.594;2023-05-08T05:50:19;12.33;;;9.77;;
25567;SDS011;13455;51.480;7.594;2023-05-08T05:52:46;10.98;;;9.85;;
25567;SDS011;13455;51.480;7.594;2023-05-08T05:55:12;11.70;;;9.90;;
25567;SDS011;13455;51.480;7.594;2023-05-08T05:57:38;12.73;;;9.83;;
25567;SDS011;13455;51.480;7.594;2023-05-08T06:00:04;11.57;;;9.87;;
25567;SDS011;13455;51.480;7.594;2023-05-08T06:02:30;11.55;;;9.80;;
25567;SDS011;13455;51.480;7.594;2023-05-08T06:04:58;12.27;;;9.40;;
25567;SDS011;13455;51.480;7.594;2023-05-08T06:07:24;10.90;;;9.23;;
25567;SDS011;13455;51.480;7.594;2023-05-08T06:09:49;16.92;;;14.60;;
25567;SDS011;13455;51.480;7.594;2023-05-08T06:12:17;16.77;;;14.97;;
25567;SDS011;13455;51.480;7.594;2023-05-08T06:14:43;18.97;;;15.37;;
25567;SDS011;13455;51.480;7.594;2023-05-08T06:17:08;16.10;;;14.10;;
25567;SDS011;13455;51.480;7.594;2023-05-08T06:19:34;20.80;;;18.03;;
25567;SDS011;13455;51.480;7.594;2023-05-08T06:22:00;21.67;;;18.27;;
25567;SDS011;13455;51.480;7.594;2023-05-08T06:24:26;13.00;;;11.35;;
25567;SDS011;13455;51.480;7.594;2023-05-08T06:26:52;13.75;;;11.10;;
25567;SDS011;13455;51.480;7.594;2023-05-08T06:29:18;12.40;;;11.07;;
25567;SDS011;13455;51.480;7.594;2023-05-08T06:31:44;12.32;;;10.20;;
25567;SDS011;13455;51.480;7.594;2023-05-08T06:34:09;11.23;;;10.07;;
25567;SDS011;13455;51.480;7.594;2023-05-08T06:36:35;13.10;;;11.23;;
25567;SDS011;13455;51.480;7.594;2023-05-08T06:39:03;13.43;;;10.38;;
25567;SDS011;13455;51.480;7.594;2023-05-08T06:41:30;11.70;;;9.63;;
25567;SDS011;13455;51.480;7.594;2023-05-08T06:43:55;10.20;;;8.65;;
25567;SDS011;13455;51.480;7.594;2023-05-08T06:46:21;11.80;;;10.45;;
25567;SDS011;13455;51.480;7.594;2023-05-08T06:48:47;12.32;;;10.60;;
25567;SDS011;13455;51.480;7.594;2023-05-08T06:51:12;11.40;;;10.20;;
25567;SDS011;13455;51.480;7.594;2023-05-08T06:53:38;11.43;;;9.30;;
25567;SDS011;13455;51.480;7.594;2023-05-08T06:56:04;10.13;;;8.93;;
25567;SDS011;13455;51.480;7.594;2023-05-08T06:58:30;10.48;;;7.72;;
25567;SDS011;13455;51.480;7.594;2023-05-08T07:00:58;9.13;;;8.18;;
25567;SDS011;13455;51.480;7.594;2023-05-08T07:03:24;10.73;;;8.60;;
25567;SDS011;13455;51.480;7.594;2023-05-08T07:05:50;10.35;;;7.88;;
25567;SDS011;13455;51.480;7.594;2023-05-08T07:08:16;10.90;;;8.80;;
25567;SDS011;13455;51.480;7.594;2023-05-08T07:10:41;11.88;;;9.07;;
25567;SDS011;13455;51.480;7.594;2023-05-08T07:13:07;11.73;;;9.67;;
25567;SDS011;13455;51.480;7.594;2023-05-08T07:15:33;11.75;;;9.57;;
25567;SDS011;13455;51.480;7.594;2023-05-08T07:17:58;14.15;;;10.38;;
25567;SDS011;13455;51.480;7.594;2023-05-08T07:20:24;12.68;;;10.38;;
25567;SDS011;13455;51.480;7.594;2023-05-08T07:22:50;14.07;;;10.37;;
25567;SDS011;13455;51.480;7.594;2023-05-08T07:25:15;11.03;;;8.40;;
25567;SDS011;13455;51.480;7.594;2023-05-08T07:27:41;10.60;;;8.02;;
25567;SDS011;13455;51.480;7.594;2023-05-08T07:30:09;10.48;;;7.53;;
25567;SDS011;13455;51.480;7.594;2023-05-08T07:32:35;8.88;;;7.50;;
25567;SDS011;13455;51.480;7.594;2023-05-08T07:35:03;9.88;;;7.00;;
25567;SDS011;13455;51.480;7.594;2023-05-08T07:37:30;8.82;;;6.70;;
25567;SDS011;13455;51.480;7.594;2023-05-08T07:39:57;10.85;;;6.55;;
25567;SDS011;13455;51.480;7.594;2023-05-08T07:42:22;7.80;;;6.45;;
25567;SDS011;13455;51.480;7.594;2023-05-08T07:44:48;7.87;;;5.90;;
25567;SDS011;13455;51.480;7.594;2023-05-08T07:47:13;6.03;;;5.30;;
25567;SDS011;13455;51.480;7.594;2023-05-08T07:49:39;8.00;;;5.20;;
25567;SDS011;13455;51.480;7.594;2023-05-08T07:52:04;7.43;;;5.20;;
25567;SDS011;13455;51.480;7.594;2023-05-08T07:54:30;6.27;;;5.10;;
25567;SDS011;13455;51.480;7.594;2023-05-08T07:56:56;7.60;;;5.70;;
25567;SDS011;13455;51.480;7.594;2023-05-08T07:59:22;6.18;;;5.20;;
25567;SDS011;13455;51.480;7.594;2023-05-08T08:01:48;7.45;;;5.32;;
25567;SDS011;13455;51.480;7.594;2023-05-08T08:04:13;7.68;;;5.55;;
25567;SDS011;13455;51.480;7.594;2023-05-08T08:06:39;7.47;;;5.17;;
25567;SDS011;13455;51.480;7.594;2023-05-08T08:09:05;7.40;;;5.37;;
25567;SDS011;13455;51.480;7.594;2023-05-08T08:11:32;7.07;;;5.47;;
25567;SDS011;13455;51.480;7.594;2023-05-08T08:13:58;5.97;;;5.37;;
25567;SDS011;13455;51.480;7.594;2023-05-08T08:16:23;7.00;;;5.23;;
25567;SDS011;13455;51.480;7.594;2023-05-08T08:18:49;6.40;;;5.68;;
25567;SDS011;13455;51.480;7.594;2023-05-08T08:21:16;7.83;;;5.63;;
25567;SDS011;13455;51.480;7.594;2023-05-08T08:23:42;8.57;;;5.17;;
25567;SDS011;13455;51.480;7.594;2023-05-08T08:26:08;7.40;;;5.53;;
25567;SDS011;13455;51.480;7.594;2023-05-08T08:28:34;6.32;;;5.40;;
25567;SDS011;13455;51.480;7.594;2023-05-08T08:31:00;7.20;;;5.43;;
25567;SDS011;13455;51.480;7.594;2023-05-08T08:33:28;7.47;;;5.40;;
25567;SDS011;13455;51.480;7.594;2023-05-08T08:35:54;7.13;;;5.15;;
25567;SDS011;13455;51.480;7.594;2023-05-08T08:38:20;7.40;;;5.57;;
25567;SDS011;13455;51.480;7.594;2023-05-08T08:40:46;6.03;;;5.40;;
25567;SDS011;13455;51.480;7.594;2023-05-08T08:43:11;7.47;;;5.57;;
25567;SDS011;13455;51.480;7.594;2023-05-08T08:45:37;7.45;;;5.50;;
25567;SDS011;13455;51.480;7.594;2023-05-08T08:48:03;6.22;;;5.00;;
25567;SDS011;13455;51.480;7.594;2023-05-08T08:50:30;6.38;;;4.78;;
25567;SDS011;13455;51.480;7.594;2023-05-08T08:55:26;5.55;;;4.63;;
25567;SDS011;13455;51.480;7.594;2023-05-08T09:00:21;6.55;;;4.90;;
25567;SDS011;13455;51.480;7.594;2023-05-08T09:02:51;8.00;;;5.40;;
25567;SDS011;13455;51.480;7.594;2023-05-08T09:05:16;8.95;;;6.28;;
25567;SDS011;13455;51.480;7.594;2023-05-08T09:07:42;9.05;;;6.57;;
25567;SDS011;13455;51.480;7.594;2023-05-08T09:10:08;7.70;;;5.40;;
25567;SDS011;13455;51.480;7.594;2023-05-08T09:12:39;9.05;;;5.55;;
25567;SDS011;13455;51.480;7.594;2023-05-08T09:15:05;5.30;;;3.78;;
25567;SDS011;13455;51.480;7.594;2023-05-08T09:17:31;5.45;;;3.70;;
25567;SDS011;13455;51.480;7.594;2023-05-08T09:19:57;6.28;;;3.22;;
25567;SDS011;13455;51.480;7.594;2023-05-08T09:22:23;5.22;;;3.53;;
25567;SDS011;13455;51.480;7.594;2023-05-08T09:24:54;7.60;;;4.20;;
25567;SDS011;13455;51.480;7.594;2023-05-08T09:27:25;5.70;;;4.30;;
25567;SDS011;13455;51.480;7.594;2023-05-08T09:29:59;6.18;;;4.90;;
25567;SDS011;13455;51.480;7.594;2023-05-08T09:32:30;6.97;;;4.70;;
25567;SDS011;13455;51.480;7.594;2023-05-08T09:34:56;7.80;;;5.00;;
25567;SDS011;13455;51.480;7.594;2023-05-08T09:37:22;8.82;;;5.00;;
25567;SDS011;13455;51.480;7.594;2023-05-08T09:39:49;6.25;;;4.68;;
25567;SDS011;13455;51.480;7.594;2023-05-08T09:42:16;8.23;;;5.18;;
25567;SDS011;13455;51.480;7.594;2023-05-08T09:44:42;6.85;;;4.82;;
25567;SDS011;13455;51.480;7.594;2023-05-08T09:49:58;6.60;;;4.75;;
25567;SDS011;13455;51.480;7.594;2023-05-08T09:52:25;8.75;;;5.20;;
25567;SDS011;13455;51.480;7.594;2023-05-08T09:57:34;7.55;;;3.60;;
25567;SDS011;13455;51.480;7.594;2023-05-08T10:02:33;5.03;;;3.20;;
25567;SDS011;13455;51.480;7.594;2023-05-08T10:04:59;4.25;;;3.28;;
25567;SDS011;13455;51.480;7.594;2023-05-08T10:07:32;5.47;;;3.00;;
25567;SDS011;13455;51.480;7.594;2023-05-08T10:10:01;4.85;;;3.20;;
25567;SDS011;13455;51.480;7.594;2023-05-08T10:12:28;5.27;;;3.50;;
25567;SDS011;13455;51.480;7.594;2023-05-08T10:14:54;6.85;;;3.72;;
25567;SDS011;13455;51.480;7.594;2023-05-08T10:17:57;6.70;;;3.67;;
25567;SDS011;13455;51.480;7.594;2023-05-08T10:20:18;5.05;;;3.60;;
25567;SDS011;13455;51.480;7.594;2023-05-08T10:22:45;5.10;;;3.60;;
25567;SDS011;13455;51.480;7.594;2023-05-08T10:25:16;5.15;;;3.83;;
25567;SDS011;13455;51.480;7.594;2023-05-08T10:27:46;6.10;;;3.80;;
25567;SDS011;13455;51.480;7.594;2023-05-08T10:30:18;6.30;;;3.73;;
25567;SDS011;13455;51.480;7.594;2023-05-08T10:32:51;5.67;;;3.70;;
25567;SDS011;13455;51.480;7.594;2023-05-08T10:35:22;4.87;;;3.83;;
25567;SDS011;13455;51.480;7.594;2023-05-08T10:37:48;8.13;;;3.95;;
25567;SDS011;13455;51.480;7.594;2023-05-08T10:40:14;5.93;;;3.85;;
25567;SDS011;13455;51.480;7.594;2023-05-08T10:42:42;6.22;;;4.05;;
25567;SDS011;13455;51.480;7.594;2023-05-08T10:45:09;7.65;;;4.07;;
25567;SDS011;13455;51.480;7.594;2023-05-08T10:53:18;7.22;;;4.03;;
25567;SDS011;13455;51.480;7.594;2023-05-08T10:55:50;6.95;;;4.03;;
25567;SDS011;13455;51.480;7.594;2023-05-08T11:03:28;5.82;;;4.30;;
25567;SDS011;13455;51.480;7.594;2023-05-08T11:05:55;5.40;;;4.30;;
25567;SDS011;13455;51.480;7.594;2023-05-08T11:08:22;5.93;;;4.38;;
25567;SDS011;13455;51.480;7.594;2023-05-08T11:15:59;6.18;;;4.30;;
25567;SDS011;13455;51.480;7.594;2023-05-08T11:18:26;5.60;;;4.18;;
25567;SDS011;13455;51.480;7.594;2023-05-08T11:23:24;5.10;;;4.00;;
25567;SDS011;13455;51.480;7.594;2023-05-08T11:31:04;5.70;;;4.00;;
25567;SDS011;13455;51.480;7.594;2023-05-08T11:33:31;5.47;;;3.50;;
25567;SDS011;13455;51.480;7.594;2023-05-08T11:39:05;6.40;;;3.10;;
25567;SDS011;13455;51.480;7.594;2023-05-08T11:41:37;4.00;;;3.00;;
25567;SDS011;13455;51.480;7.594;2023-05-08T11:44:19;5.13;;;3.22;;
25567;SDS011;13455;51.480;7.594;2023-05-08T11:46:53;4.27;;;2.90;;
25567;SDS011;13455;51.480;7.594;2023-05-08T11:49:21;4.32;;;3.08;;
25567;SDS011;13455;51.480;7.594;2023-05-08T11:51:48;4.03;;;2.97;;
25567;SDS011;13455;51.480;7.594;2023-05-08T11:54:19;4.88;;;2.90;;
25567;SDS011;13455;51.480;7.594;2023-05-08T11:56:46;5.40;;;3.38;;
25567;SDS011;13455;51.480;7.594;2023-05-08T11:59:12;4.85;;;2.92;;
25567;SDS011;13455;51.480;7.594;2023-05-08T12:01:38;5.60;;;2.93;;
25567;SDS011;13455;51.480;7.594;2023-05-08T12:06:31;4.95;;;3.20;;
25567;SDS011;13455;51.480;7.594;2023-05-08T12:08:58;4.43;;;3.10;;
25567;SDS011;13455;51.480;7.594;2023-05-08T12:11:29;5.25;;;3.25;;
25567;SDS011;13455;51.480;7.594;2023-05-08T12:13:55;4.82;;;3.35;;
25567;SDS011;13455;51.480;7.594;2023-05-08T12:16:21;4.75;;;3.20;;
25567;SDS011;13455;51.480;7.594;2023-05-08T12:18:49;4.03;;;3.00;;
25567;SDS011;13455;51.480;7.594;2023-05-08T12:21:16;7.05;;;3.58;;
25567;SDS011;13455;51.480;7.594;2023-05-08T12:23:42;5.43;;;3.30;;
25567;SDS011;13455;51.480;7.594;2023-05-08T12:26:08;4.50;;;3.30;;
25567;SDS011;13455;51.480;7.594;2023-05-08T12:28:34;5.30;;;3.42;;
25567;SDS011;13455;51.480;7.594;2023-05-08T12:31:00;4.87;;;3.30;;
25567;SDS011;13455;51.480;7.594;2023-05-08T12:33:26;5.32;;;3.30;;
25567;SDS011;13455;51.480;7.594;2023-05-08T12:35:53;5.33;;;3.47;;
25567;SDS011;13455;51.480;7.594;2023-05-08T12:38:24;7.03;;;3.53;;
25567;SDS011;13455;51.480;7.594;2023-05-08T12:40:50;5.07;;;3.50;;
25567;SDS011;13455;51.480;7.594;2023-05-08T12:43:32;5.60;;;3.47;;
25567;SDS011;13455;51.480;7.594;2023-05-08T12:45:59;4.22;;;3.30;;
25567;SDS011;13455;51.480;7.594;2023-05-08T12:48:25;6.28;;;3.35;;
25567;SDS011;13455;51.480;7.594;2023-05-08T12:50:52;4.88;;;3.38;;
25567;SDS011;13455;51.480;7.594;2023-05-08T12:53:18;4.50;;;3.25;;
25567;SDS011;13455;51.480;7.594;2023-05-08T12:55:52;4.72;;;3.53;;
25567;SDS011;13455;51.480;7.594;2023-05-08T12:58:23;6.13;;;3.50;;
25567;SDS011;13455;51.480;7.594;2023-05-08T13:01:01;5.20;;;3.50;;
25567;SDS011;13455;51.480;7.594;2023-05-08T13:03:34;4.13;;;3.13;;
25567;SDS011;13455;51.480;7.594;2023-05-08T13:06:00;4.10;;;3.20;;
25567;SDS011;13455;51.480;7.594;2023-05-08T13:08:29;5.82;;;3.35;;
25567;SDS011;13455;51.480;7.594;2023-05-08T13:10:56;4.63;;;3.53;;
25567;SDS011;13455;51.480;7.594;2023-05-08T13:13:23;4.40;;;3.80;;
25567;SDS011;13455;51.480;7.594;2023-05-08T13:15:53;4.93;;;3.40;;
25567;SDS011;13455;51.480;7.594;2023-05-08T13:18:19;4.95;;;3.50;;
25567;SDS011;13455;51.480;7.594;2023-05-08T13:20:47;4.37;;;3.60;;
25567;SDS011;13455;51.480;7.594;2023-05-08T13:23:13;4.55;;;3.53;;
25567;SDS011;13455;51.480;7.594;2023-05-08T13:25:39;4.30;;;3.80;;
25567;SDS011;13455;51.480;7.594;2023-05-08T13:28:05;5.00;;;3.60;;
25567;SDS011;13455;51.480;7.594;2023-05-08T13:30:32;5.67;;;3.73;;
25567;SDS011;13455;51.480;7.594;2023-05-08T13:32:58;5.68;;;3.72;;
25567;SDS011;13455;51.480;7.594;2023-05-08T13:35:24;7.55;;;4.20;;
25567;SDS011;13455;51.480;7.594;2023-05-08T13:37:52;5.70;;;4.03;;
25567;SDS011;13455;51.480;7.594;2023-05-08T13:40:18;5.50;;;3.90;;
25567;SDS011;13455;51.480;7.594;2023-05-08T13:42:43;5.60;;;4.05;;
25567;SDS011;13455;51.480;7.594;2023-05-08T13:45:09;5.50;;;4.00;;
25567;SDS011;13455;51.480;7.594;2023-05-08T13:47:38;5.97;;;4.40;;
25567;SDS011;13455;51.480;7.594;2023-05-08T13:50:04;6.50;;;4.22;;
25567;SDS011;13455;51.480;7.594;2023-05-08T13:52:30;6.10;;;4.22;;
25567;SDS011;13455;51.480;7.594;2023-05-08T13:54:55;5.97;;;4.37;;
25567;SDS011;13455;51.480;7.594;2023-05-08T13:57:22;8.18;;;4.88;;
25567;SDS011;13455;51.480;7.594;2023-05-08T13:59:48;7.38;;;5.18;;
25567;SDS011;13455;51.480;7.594;2023-05-08T14:02:14;7.97;;;4.93;;
25567;SDS011;13455;51.480;7.594;2023-05-08T14:04:39;7.20;;;4.60;;
25567;SDS011;13455;51.480;7.594;2023-05-08T14:07:05;10.18;;;5.30;;
25567;SDS011;13455;51.480;7.594;2023-05-08T14:09:31;8.40;;;4.72;;
25567;SDS011;13455;51.480;7.594;2023-05-08T14:11:57;6.80;;;4.82;;
25567;SDS011;13455;51.480;7.594;2023-05-08T14:14:23;7.13;;;4.97;;
25567;SDS011;13455;51.480;7.594;2023-05-08T14:16:48;5.77;;;4.90;;
25567;SDS011;13455;51.480;7.594;2023-05-08T14:19:17;6.70;;;5.00;;
25567;SDS011;13455;51.480;7.594;2023-05-08T14:21:43;6.43;;;4.90;;
25567;SDS011;13455;51.480;7.594;2023-05-08T14:24:09;7.10;;;5.00;;
25567;SDS011;13455;51.480;7.594;2023-05-08T14:26:35;6.40;;;5.18;;
25567;SDS011;13455;51.480;7.594;2023-05-08T14:29:02;6.80;;;5.25;;
25567;SDS011;13455;51.480;7.594;2023-05-08T14:31:27;6.35;;;5.15;;
25567;SDS011;13455;51.480;7.594;2023-05-08T14:33:53;6.57;;;5.28;;
25567;SDS011;13455;51.480;7.594;2023-05-08T14:36:19;7.95;;;5.30;;
25567;SDS011;13455;51.480;7.594;2023-05-08T14:38:45;8.90;;;5.57;;
25567;SDS011;13455;51.480;7.594;2023-05-08T14:41:10;7.15;;;5.30;;
25567;SDS011;13455;51.480;7.594;2023-05-08T14:43:36;6.53;;;5.37;;
25567;SDS011;13455;51.480;7.594;2023-05-08T14:46:02;7.60;;;5.40;;
25567;SDS011;13455;51.480;7.594;2023-05-08T14:48:28;7.40;;;5.90;;
25567;SDS011;13455;51.480;7.594;2023-05-08T14:50:54;10.27;;;5.80;;
25567;SDS011;13455;51.480;7.594;2023-05-08T14:53:20;7.60;;;5.95;;
25567;SDS011;13455;51.480;7.594;2023-05-08T14:55:46;6.38;;;5.70;;
25567;SDS011;13455;51.480;7.594;2023-05-08T14:58:12;7.27;;;5.80;;
25567;SDS011;13455;51.480;7.594;2023-05-08T15:00:37;6.85;;;5.85;;
25567;SDS011;13455;51.480;7.594;2023-05-08T15:03:03;6.82;;;6.03;;
25567;SDS011;13455;51.480;7.594;2023-05-08T15:05:29;7.57;;;5.90;;
25567;SDS011;13455;51.480;7.594;2023-05-08T15:07:55;6.97;;;5.93;;
25567;SDS011;13455;51.480;7.594;2023-05-08T15:10:21;7.10;;;5.80;;
25567;SDS011;13455;51.480;7.594;2023-05-08T15:12:47;8.82;;;5.60;;
25567;SDS011;13455;51.480;7.594;2023-05-08T15:15:13;6.70;;;5.65;;
25567;SDS011;13455;51.480;7.594;2023-05-08T15:17:38;7.35;;;5.88;;
25567;SDS011;13455;51.480;7.594;2023-05-08T15:20:06;8.10;;;6.10;;
25567;SDS011;13455;51.480;7.594;2023-05-08T15:22:34;7.43;;;5.40;;
25567;SDS011;13455;51.480;7.594;2023-05-08T15:25:01;8.00;;;5.83;;
25567;SDS011;13455;51.480;7.594;2023-05-08T15:27:27;6.53;;;5.50;;
25567;SDS011;13455;51.480;7.594;2023-05-08T15:29:53;10.35;;;6.72;;
25567;SDS011;13455;51.480;7.594;2023-05-08T15:32:19;9.20;;;6.20;;
25567;SDS011;13455;51.480;7.594;2023-05-08T15:34:45;7.32;;;6.20;;
25567;SDS011;13455;51.480;7.594;2023-05-08T15:37:10;7.37;;;5.60;;
25567;SDS011;13455;51.480;7.594;2023-05-08T15:39:36;6.22;;;5.63;;
25567;SDS011;13455;51.480;7.594;2023-05-08T15:42:02;6.87;;;5.60;;
25567;SDS011;13455;51.480;7.594;2023-05-08T15:44:28;10.15;;;5.82;;
25567;SDS011;13455;51.480;7.594;2023-05-08T15:46:54;8.20;;;5.75;;